createdAt,value
2018-12-05T00:00:52.191Z,99.90
2018-12-05T00:03:21.440Z,99.90
2018-12-05T00:05:53.554Z,99.90
2018-12-05T00:08:22.735Z,99.90
2018-12-05T00:10:51.894Z,99.90
2018-12-05T00:13:21.079Z,99.90
2018-12-05T00:15:50.280Z,99.90
2018-12-05T00:18:19.487Z,99.90
2018-12-05T00:20:48.765Z,99.90
2018-12-05T00:23:18.042Z,99.90
2018-12-05T00:25:47.267Z,99.90
2018-12-05T00:28:16.485Z,99.90
2018-12-05T00:30:45.655Z,99.90
2018-12-05T00:33:14.880Z,99.90
2018-12-05T00:35:44.093Z,99.90
2018-12-05T00:38:13.278Z,99.90
2018-12-05T00:40:42.461Z,99.90
2018-12-05T00:43:18.430Z,99.90
2018-12-05T00:45:47.592Z,99.90
2018-12-05T00:48:16.783Z,99.90
2018-12-05T00:50:45.948Z,99.90
2018-12-05T00:53:15.131Z,99.90
2018-12-05T00:55:44.429Z,99.90
2018-12-05T00:58:13.608Z,99.90
2018-12-05T01:00:42.789Z,99.90
2018-12-05T01:03:11.991Z,99.90
2018-12-05T01:05:41.176Z,99.90
2018-12-05T01:08:10.340Z,99.90
2018-12-05T01:10:39.610Z,99.90
2018-12-05T01:13:08.766Z,99.90
2018-12-05T01:15:38.134Z,99.90
2018-12-05T01:18:07.294Z,99.90
2018-12-05T01:20:36.646Z,99.90
2018-12-05T01:23:05.806Z,99.90
2018-12-05T01:25:34.987Z,99.90
2018-12-05T01:28:04.350Z,99.90
2018-12-05T01:30:33.631Z,99.90
2018-12-05T01:33:02.862Z,99.90
2018-12-05T01:35:32.127Z,99.90
2018-12-05T01:38:01.386Z,99.90
2018-12-05T01:40:30.596Z,99.90
2018-12-05T01:42:59.850Z,99.90
2018-12-05T01:45:29.287Z,99.90
2018-12-05T01:47:58.444Z,99.90
2018-12-05T01:50:27.718Z,99.90
2018-12-05T01:52:56.887Z,99.90
2018-12-05T01:55:26.355Z,99.90
2018-12-05T01:57:55.528Z,99.90
2018-12-05T02:00:24.972Z,99.90
2018-12-05T02:02:54.159Z,99.90
2018-12-05T02:05:23.531Z,99.90
2018-12-05T02:07:52.695Z,99.90
2018-12-05T02:10:21.875Z,99.90
2018-12-05T02:12:51.047Z,99.90
2018-12-05T02:15:20.232Z,99.90
2018-12-05T02:17:49.438Z,99.90
2018-12-05T02:20:18.634Z,99.90
2018-12-05T02:22:47.903Z,99.90
2018-12-05T02:25:17.095Z,99.90
2018-12-05T02:27:46.347Z,99.90
2018-12-05T02:30:15.533Z,99.90
2018-12-05T02:32:44.704Z,99.90
2018-12-05T02:35:14.007Z,99.90
2018-12-05T02:37:43.243Z,99.90
2018-12-05T02:40:12.445Z,99.90
2018-12-05T02:42:41.613Z,99.90
2018-12-05T02:45:10.939Z,99.90
2018-12-05T02:47:40.207Z,99.90
2018-12-05T02:50:09.679Z,99.90
2018-12-05T02:52:38.914Z,99.90
2018-12-05T02:55:08.286Z,99.90
2018-12-05T02:57:37.451Z,99.90
2018-12-05T03:00:07.886Z,99.90
2018-12-05T03:02:37.057Z,99.90
2018-12-05T03:05:07.940Z,99.90
2018-12-05T03:07:37.344Z,99.90
2018-12-05T03:10:07.267Z,99.90
2018-12-05T03:12:36.442Z,99.90
2018-12-05T03:15:06.307Z,99.90
2018-12-05T03:17:35.490Z,99.90
2018-12-05T03:20:05.534Z,99.90
2018-12-05T03:22:34.770Z,99.90
2018-12-05T03:25:04.352Z,99.90
2018-12-05T03:27:33.522Z,99.90
2018-12-05T03:30:02.732Z,99.90
2018-12-05T03:32:31.918Z,99.90
2018-12-05T03:35:01.106Z,99.90
2018-12-05T03:37:30.287Z,99.90
2018-12-05T03:39:59.521Z,99.90
2018-12-05T03:42:28.692Z,99.90
2018-12-05T03:44:58.023Z,99.90
2018-12-05T03:47:27.199Z,99.90
2018-12-05T03:50:02.947Z,99.90
2018-12-05T03:52:32.770Z,99.90
2018-12-05T03:55:01.981Z,99.90
2018-12-05T03:57:31.149Z,99.90
2018-12-05T04:00:00.335Z,99.90
2018-12-05T04:02:29.518Z,99.90
2018-12-05T04:04:58.698Z,99.90
2018-12-05T04:07:27.979Z,99.90
2018-12-05T04:09:57.205Z,99.90
2018-12-05T04:12:26.462Z,99.90
2018-12-05T04:14:55.642Z,99.90
2018-12-05T04:17:24.831Z,99.90
2018-12-05T04:19:54.115Z,99.90
2018-12-05T04:22:23.372Z,99.90
2018-12-05T04:24:52.564Z,99.90
2018-12-05T04:27:25.287Z,99.90
2018-12-05T04:29:55.370Z,99.90
2018-12-05T04:32:24.579Z,99.90
2018-12-05T04:34:53.736Z,99.90
2018-12-05T04:37:22.947Z,99.90
2018-12-05T04:39:52.226Z,99.90
2018-12-05T04:42:21.415Z,99.90
2018-12-05T04:44:50.610Z,99.90
2018-12-05T04:47:19.839Z,99.90
2018-12-05T04:49:49.001Z,99.90
2018-12-05T04:52:18.315Z,99.90
2018-12-05T04:54:47.488Z,99.90
2018-12-05T04:57:16.685Z,99.90
2018-12-05T04:59:45.857Z,99.90
2018-12-05T05:02:15.328Z,99.90
2018-12-05T05:04:44.622Z,99.90
2018-12-05T05:07:13.823Z,99.90
2018-12-05T05:09:42.999Z,99.90
2018-12-05T05:12:15.113Z,99.90
2018-12-05T05:14:44.310Z,99.90
2018-12-05T05:17:13.509Z,99.90
2018-12-05T05:19:42.751Z,99.90
2018-12-05T05:22:11.939Z,99.90
2018-12-05T05:24:41.106Z,99.90
2018-12-05T05:27:10.295Z,99.90
2018-12-05T05:29:39.459Z,99.90
2018-12-05T05:32:08.647Z,99.90
2018-12-05T05:34:37.835Z,99.90
2018-12-05T05:37:07.235Z,99.90
2018-12-05T05:39:36.435Z,99.90
2018-12-05T05:42:05.731Z,99.90
2018-12-05T05:44:34.919Z,99.90
2018-12-05T05:47:04.199Z,99.90
2018-12-05T05:49:33.367Z,99.90
2018-12-05T05:52:02.556Z,99.90
2018-12-05T05:54:31.728Z,99.90
2018-12-05T05:57:00.935Z,99.90
2018-12-05T05:59:30.111Z,99.90
2018-12-05T06:01:59.432Z,99.90
2018-12-05T06:04:28.609Z,99.90
2018-12-05T06:06:57.799Z,99.90
2018-12-05T06:09:26.967Z,99.90
2018-12-05T06:11:56.227Z,99.90
2018-12-05T06:14:25.496Z,99.90
2018-12-05T06:16:54.814Z,99.90
2018-12-05T06:19:23.989Z,99.90
2018-12-05T06:21:53.187Z,99.90
2018-12-05T06:24:22.351Z,99.90
2018-12-05T06:26:52.843Z,99.90
2018-12-05T06:29:22.015Z,99.90
2018-12-05T06:31:51.209Z,99.90
2018-12-05T06:34:20.407Z,99.90
2018-12-05T06:36:49.602Z,99.90
2018-12-05T06:39:18.799Z,99.90
2018-12-05T06:41:48.007Z,99.90
2018-12-05T06:44:17.206Z,99.90
2018-12-05T06:46:46.543Z,99.90
2018-12-05T06:49:15.845Z,99.90
2018-12-05T06:51:45.142Z,99.90
2018-12-05T06:54:21.149Z,99.90
2018-12-05T06:56:50.341Z,99.90
2018-12-05T06:59:19.601Z,99.90
2018-12-05T07:01:48.903Z,99.90
2018-12-05T07:04:18.063Z,99.90
2018-12-05T07:06:47.271Z,99.90
2018-12-05T07:09:16.451Z,99.90
2018-12-05T07:11:45.658Z,99.90
2018-12-05T07:14:14.965Z,99.90
2018-12-05T07:16:44.152Z,99.90
2018-12-05T07:19:13.353Z,99.90
2018-12-05T07:21:42.683Z,99.90
2018-12-05T07:24:11.947Z,99.90
2018-12-05T07:26:41.159Z,99.90
2018-12-05T07:29:10.330Z,99.90
2018-12-05T07:31:39.602Z,99.90
2018-12-05T07:34:08.853Z,99.90
2018-12-05T07:36:38.048Z,99.90
2018-12-05T07:39:09.187Z,99.90
2018-12-05T07:41:38.475Z,99.90
2018-12-05T07:44:07.655Z,99.90
2018-12-05T07:46:36.879Z,99.90
2018-12-05T07:49:06.167Z,99.90
2018-12-05T07:51:35.356Z,99.90
2018-12-05T07:54:04.537Z,99.90
2018-12-05T07:56:33.743Z,99.90
2018-12-05T07:59:03.032Z,99.90
2018-12-05T08:01:32.219Z,99.90
2018-12-05T08:04:01.477Z,99.90
2018-12-05T08:06:30.671Z,99.90
2018-12-05T08:08:59.966Z,99.90
2018-12-05T08:11:29.231Z,99.90
2018-12-05T08:13:58.439Z,99.90
2018-12-05T08:16:27.645Z,99.90
2018-12-05T08:18:56.839Z,99.90
2018-12-05T08:21:26.099Z,99.90
2018-12-05T08:23:55.295Z,99.90
2018-12-05T08:26:24.499Z,99.90
2018-12-05T08:28:53.738Z,99.90
2018-12-05T08:31:22.994Z,99.90
2018-12-05T08:33:52.319Z,99.90
2018-12-05T08:36:21.508Z,99.90
2018-12-05T08:38:50.751Z,99.90
2018-12-05T08:41:19.924Z,99.90
2018-12-05T08:43:49.135Z,99.90
2018-12-05T08:46:18.434Z,99.90
2018-12-05T08:48:47.633Z,99.90
2018-12-05T08:51:16.935Z,99.90
2018-12-05T08:53:46.130Z,99.90
2018-12-05T08:56:15.317Z,99.90
2018-12-05T08:58:44.627Z,99.90
2018-12-05T09:01:13.919Z,99.90
2018-12-05T09:03:43.133Z,99.90
2018-12-05T09:06:18.971Z,99.90
2018-12-05T09:08:48.263Z,99.90
2018-12-05T09:11:17.479Z,99.90
2018-12-05T09:13:46.695Z,99.90
2018-12-05T09:16:15.913Z,99.90
2018-12-05T09:18:45.095Z,99.90
2018-12-05T09:21:14.255Z,99.90
2018-12-05T09:23:43.514Z,99.90
2018-12-05T09:26:12.734Z,99.90
2018-12-05T09:28:41.916Z,99.90
2018-12-05T09:31:11.091Z,99.90
2018-12-05T09:33:40.283Z,99.90
2018-12-05T09:36:09.535Z,99.90
2018-12-05T09:38:38.787Z,99.90
2018-12-05T09:41:07.954Z,99.90
2018-12-05T09:43:37.244Z,99.90
2018-12-05T09:46:06.422Z,99.90
2018-12-05T09:48:35.605Z,99.90
2018-12-05T09:51:04.968Z,99.90
2018-12-05T09:53:34.205Z,99.90
2018-12-05T09:56:03.432Z,99.90
2018-12-05T09:58:32.631Z,99.90
2018-12-05T10:01:01.798Z,99.90
2018-12-05T10:03:31.007Z,99.90
2018-12-05T10:06:00.190Z,99.90
2018-12-05T10:08:29.415Z,99.90
2018-12-05T10:10:58.616Z,99.90
2018-12-05T10:13:27.800Z,99.90
2018-12-05T10:15:56.999Z,99.90
2018-12-05T10:18:26.194Z,99.90
2018-12-05T10:20:56.136Z,99.90
2018-12-05T10:23:25.585Z,99.90
2018-12-05T10:25:54.934Z,99.90
2018-12-05T10:28:24.196Z,99.90
2018-12-05T10:30:53.378Z,99.90
2018-12-05T10:33:22.737Z,99.90
2018-12-05T10:35:52.036Z,99.90
2018-12-05T10:38:21.215Z,99.90
2018-12-05T10:40:50.419Z,99.90
2018-12-05T10:43:19.706Z,99.90
2018-12-05T10:45:48.883Z,99.90
2018-12-05T10:48:19.373Z,99.90
2018-12-05T10:50:48.578Z,99.90
2018-12-05T10:53:17.750Z,99.90
2018-12-05T10:55:47.115Z,99.90
2018-12-05T10:58:16.317Z,99.90
2018-12-05T11:00:50.810Z,99.90
2018-12-05T11:03:26.283Z,99.90
2018-12-05T11:06:00.879Z,99.90
2018-12-05T11:08:35.347Z,99.90
2018-12-05T11:11:10.163Z,99.90
2018-12-05T11:13:44.712Z,99.90
2018-12-05T11:16:19.420Z,99.90
2018-12-05T11:18:53.894Z,99.90
2018-12-05T11:21:28.607Z,99.90
2018-12-05T11:24:11.187Z,99.90
2018-12-05T11:26:40.548Z,99.90
2018-12-05T11:29:10.004Z,99.90
2018-12-05T11:31:39.199Z,99.90
2018-12-05T11:34:08.451Z,99.90
2018-12-05T11:36:37.628Z,99.90
2018-12-05T11:39:09.021Z,99.90
2018-12-05T11:41:38.308Z,99.90
2018-12-05T11:44:07.595Z,99.90
2018-12-05T11:46:36.879Z,99.90
2018-12-05T11:49:06.135Z,99.90
2018-12-05T11:51:35.422Z,99.90
2018-12-05T11:54:04.694Z,99.90
2018-12-05T11:56:33.895Z,99.80
2018-12-05T11:59:03.157Z,98.10
2018-12-05T12:01:32.400Z,96.90
2018-12-05T12:04:01.583Z,95.20
2018-12-05T12:06:33.323Z,95.70
2018-12-05T12:09:02.771Z,94.00
2018-12-05T12:11:32.072Z,92.90
2018-12-05T12:14:01.376Z,92.10
2018-12-05T12:16:30.734Z,90.90
2018-12-05T12:19:00.291Z,88.80
2018-12-05T12:21:29.589Z,91.60
2018-12-05T12:23:58.779Z,91.90
2018-12-05T12:26:33.199Z,90.50
2018-12-05T12:28:59.184Z,89.40
2018-12-05T12:31:28.382Z,86.70
2018-12-05T12:33:57.575Z,87.40
2018-12-05T12:36:26.758Z,87.00
2018-12-05T12:38:55.923Z,90.00
2018-12-05T12:41:28.159Z,90.10
2018-12-05T12:43:57.326Z,91.80
2018-12-05T12:46:26.536Z,92.70
2018-12-05T12:48:55.835Z,93.00
2018-12-05T12:51:25.113Z,93.00
2018-12-05T12:53:54.339Z,94.10
2018-12-05T12:56:23.526Z,94.50
2018-12-05T12:58:52.690Z,93.60
2018-12-05T13:01:21.891Z,94.40
2018-12-05T13:03:51.123Z,93.80
2018-12-05T13:06:20.554Z,93.20
2018-12-05T13:08:52.686Z,93.80
2018-12-05T13:11:21.883Z,95.70
2018-12-05T13:13:51.051Z,97.10
2018-12-05T13:16:20.586Z,97.20
2018-12-05T13:18:49.755Z,98.10
2018-12-05T13:21:19.007Z,97.90
2018-12-05T13:23:48.287Z,97.90
2018-12-05T13:26:17.483Z,98.10
2018-12-05T13:28:46.651Z,99.20
2018-12-05T13:31:15.947Z,99.10
2018-12-05T13:33:45.102Z,99.10
2018-12-05T13:36:14.476Z,99.10
2018-12-05T13:38:43.751Z,99.30
2018-12-05T13:41:13.049Z,99.90
2018-12-05T13:43:42.281Z,99.90
2018-12-05T13:46:11.559Z,99.90
2018-12-05T13:48:40.779Z,99.90
2018-12-05T13:51:10.058Z,99.90
2018-12-05T13:53:40.115Z,99.90
2018-12-05T13:56:09.312Z,99.90
2018-12-05T13:58:38.483Z,99.90
2018-12-05T14:01:10.911Z,99.90
2018-12-05T14:03:40.201Z,99.90
2018-12-05T14:06:09.553Z,99.90
2018-12-05T14:08:38.731Z,99.90
2018-12-05T14:11:08.030Z,99.90
2018-12-05T14:13:37.190Z,99.90
2018-12-05T14:16:06.618Z,99.90
2018-12-05T14:18:35.840Z,99.90
2018-12-05T14:21:05.151Z,99.90
2018-12-05T14:23:34.391Z,99.90
2018-12-05T14:26:03.688Z,99.90
2018-12-05T14:28:32.860Z,99.90
2018-12-05T14:31:02.094Z,99.90
2018-12-05T14:33:31.286Z,99.90
2018-12-05T14:36:00.506Z,99.90
2018-12-05T14:38:29.807Z,99.90
2018-12-05T14:40:59.007Z,99.90
2018-12-05T14:43:28.255Z,99.90
2018-12-05T14:45:57.470Z,99.90
2018-12-05T14:48:26.639Z,99.90
2018-12-05T14:50:55.863Z,99.90
2018-12-05T14:53:25.071Z,99.90
2018-12-05T14:55:54.276Z,99.90
2018-12-05T14:58:23.602Z,99.90
2018-12-05T15:00:52.939Z,99.90
2018-12-05T15:03:22.129Z,99.90
2018-12-05T15:05:51.515Z,99.90
2018-12-05T15:08:20.711Z,99.90
2018-12-05T15:10:50.048Z,99.90
2018-12-05T15:13:19.398Z,99.90
2018-12-05T15:15:48.670Z,99.90
2018-12-05T15:18:18.062Z,99.90
2018-12-05T15:20:47.251Z,99.90
2018-12-05T15:23:16.564Z,99.90
2018-12-05T15:25:45.762Z,99.90
2018-12-05T15:28:15.070Z,99.90
2018-12-05T15:30:44.336Z,99.90
2018-12-05T15:33:13.595Z,99.90
2018-12-05T15:35:44.155Z,99.90
2018-12-05T15:38:13.478Z,99.90
2018-12-05T15:40:42.654Z,99.90
2018-12-05T15:43:11.890Z,99.90
2018-12-05T15:45:41.070Z,99.90
2018-12-05T15:48:10.320Z,99.90
2018-12-05T15:50:39.494Z,99.90
2018-12-05T15:53:08.847Z,99.90
2018-12-05T15:55:38.008Z,99.90
2018-12-05T15:58:07.264Z,99.90
2018-12-05T16:00:36.520Z,99.90
2018-12-05T16:03:05.951Z,99.90
2018-12-05T16:05:35.151Z,99.90
2018-12-05T16:08:04.459Z,99.90
2018-12-05T16:10:33.630Z,99.90
2018-12-05T16:13:02.843Z,99.90
2018-12-05T16:15:32.006Z,99.90
2018-12-05T16:18:01.186Z,99.90
2018-12-05T16:20:30.371Z,99.90
2018-12-05T16:22:59.619Z,99.90
2018-12-05T16:25:28.796Z,99.90
2018-12-05T16:28:04.760Z,99.90
2018-12-05T16:30:34.011Z,99.90
2018-12-05T16:33:09.831Z,99.90
2018-12-05T16:35:39.010Z,99.90
2018-12-05T16:38:08.197Z,99.90
2018-12-05T16:40:37.378Z,99.90
2018-12-05T16:43:06.650Z,99.90
2018-12-05T16:45:35.808Z,99.90
2018-12-05T16:48:07.240Z,99.90
2018-12-05T16:50:36.642Z,99.90
2018-12-05T16:53:06.385Z,99.90
2018-12-05T16:55:35.560Z,99.90
2018-12-05T16:58:04.931Z,99.90
2018-12-05T17:00:34.090Z,99.90
2018-12-05T17:03:03.291Z,99.90
2018-12-05T17:05:32.860Z,99.90
2018-12-05T17:08:02.082Z,99.90
2018-12-05T17:10:31.266Z,99.90
2018-12-05T17:13:00.463Z,99.90
2018-12-05T17:15:29.715Z,99.90
2018-12-05T17:17:59.062Z,99.90
2018-12-05T17:20:28.406Z,99.90
2018-12-05T17:22:57.599Z,99.90
2018-12-05T17:25:26.764Z,99.90
2018-12-05T17:27:55.956Z,99.90
2018-12-05T17:30:25.153Z,99.90
2018-12-05T17:32:54.337Z,99.90
2018-12-05T17:35:23.603Z,99.90
2018-12-05T17:37:52.826Z,99.90
2018-12-05T17:40:22.243Z,99.90
2018-12-05T17:42:51.449Z,99.90
2018-12-05T17:45:21.615Z,99.90
2018-12-05T17:47:51.038Z,99.90
2018-12-05T17:50:20.307Z,99.90
2018-12-05T17:52:49.749Z,99.90
2018-12-05T17:55:19.010Z,99.90
2018-12-05T17:57:48.241Z,99.90
2018-12-05T18:00:17.463Z,99.90
2018-12-05T18:02:46.643Z,99.90
2018-12-05T18:05:16.015Z,99.90
2018-12-05T18:07:45.494Z,99.90
2018-12-05T18:10:14.985Z,99.90
2018-12-05T18:12:44.174Z,99.90
2018-12-05T18:15:13.550Z,99.90
2018-12-05T18:17:42.854Z,99.90
2018-12-05T18:20:13.643Z,99.90
2018-12-05T18:22:43.463Z,99.90
2018-12-05T18:25:12.635Z,99.90
2018-12-05T18:27:41.821Z,99.90
2018-12-05T18:30:14.204Z,99.90
2018-12-05T18:32:43.493Z,99.90
2018-12-05T18:35:12.870Z,99.90
2018-12-05T18:37:42.492Z,99.90
2018-12-05T18:40:11.738Z,99.90
2018-12-05T18:42:40.987Z,99.90
2018-12-05T18:45:10.462Z,99.90
2018-12-05T18:47:39.821Z,99.90
2018-12-05T18:50:09.693Z,99.90
2018-12-05T18:52:38.894Z,99.90
2018-12-05T18:55:08.335Z,99.90
2018-12-05T18:57:37.506Z,99.90
2018-12-05T19:00:09.771Z,99.90
2018-12-05T19:02:38.951Z,99.90
2018-12-05T19:05:09.031Z,99.90
2018-12-05T19:07:38.218Z,99.90
2018-12-05T19:10:07.695Z,99.90
2018-12-05T19:12:36.910Z,99.90
2018-12-05T19:15:06.967Z,99.90
2018-12-05T19:17:36.299Z,99.90
2018-12-05T19:20:07.632Z,99.90
2018-12-05T19:22:36.802Z,99.90
2018-12-05T19:25:07.287Z,99.90
2018-12-05T19:27:36.452Z,99.90
2018-12-05T19:30:08.074Z,99.90
2018-12-05T19:32:37.398Z,99.90
2018-12-05T19:35:06.943Z,99.90
2018-12-05T19:37:36.213Z,99.90
2018-12-05T19:40:06.367Z,99.90
2018-12-05T19:42:35.621Z,99.90
2018-12-05T19:45:05.695Z,99.90
2018-12-05T19:47:34.849Z,99.90
2018-12-05T19:50:05.203Z,99.90
2018-12-05T19:52:34.467Z,99.90
2018-12-05T19:55:04.118Z,99.90
2018-12-05T19:57:33.372Z,99.90
2018-12-05T20:00:02.663Z,99.90
2018-12-05T20:02:31.864Z,99.90
2018-12-05T20:05:01.186Z,99.90
2018-12-05T20:07:30.375Z,99.90
2018-12-05T20:09:59.594Z,99.90
2018-12-05T20:12:28.943Z,99.90
2018-12-05T20:14:58.119Z,99.90
2018-12-05T20:17:27.383Z,99.90
2018-12-05T20:19:57.279Z,99.90
2018-12-05T20:22:27.931Z,99.90
2018-12-05T20:24:57.203Z,99.90
2018-12-05T20:27:26.383Z,99.90
2018-12-05T20:29:55.567Z,99.90
2018-12-05T20:32:24.731Z,99.90
2018-12-05T20:34:53.921Z,99.90
2018-12-05T20:37:23.105Z,99.90
2018-12-05T20:39:52.457Z,99.90
2018-12-05T20:42:21.632Z,99.90
2018-12-05T20:44:50.823Z,99.90
2018-12-05T20:47:20.191Z,99.90
2018-12-05T20:49:49.396Z,99.90
2018-12-05T20:52:18.603Z,99.90
2018-12-05T20:54:47.815Z,99.90
2018-12-05T20:57:16.982Z,99.90
2018-12-05T20:59:46.187Z,99.90
2018-12-05T21:02:15.343Z,99.90
2018-12-05T21:04:44.666Z,99.90
2018-12-05T21:07:13.934Z,99.90
2018-12-05T21:09:43.120Z,99.90
2018-12-05T21:12:12.387Z,99.90
2018-12-05T21:14:41.701Z,99.90
2018-12-05T21:17:10.958Z,99.90
2018-12-05T21:19:40.247Z,99.90
2018-12-05T21:22:09.443Z,99.90
2018-12-05T21:24:38.679Z,99.90
2018-12-05T21:27:07.954Z,99.90
2018-12-05T21:29:37.387Z,99.90
2018-12-05T21:32:06.659Z,99.90
2018-12-05T21:34:35.851Z,99.90
2018-12-05T21:37:05.158Z,99.90
2018-12-05T21:39:34.354Z,99.90
2018-12-05T21:42:04.220Z,99.90
2018-12-05T21:44:33.928Z,99.90
2018-12-05T21:47:03.099Z,99.90
2018-12-05T21:49:32.330Z,99.90
2018-12-05T21:52:01.768Z,99.90
2018-12-05T21:54:30.972Z,99.90
2018-12-05T21:57:00.126Z,99.90
2018-12-05T21:59:29.312Z,99.90
2018-12-05T22:01:58.559Z,99.90
2018-12-05T22:04:27.875Z,99.90
2018-12-05T22:06:57.062Z,99.90
2018-12-05T22:09:26.805Z,99.90
2018-12-05T22:11:55.963Z,99.90
2018-12-05T22:14:25.174Z,99.90
2018-12-05T22:16:54.335Z,99.90
2018-12-05T22:19:23.571Z,99.90
2018-12-05T22:21:52.859Z,99.90
2018-12-05T22:24:22.051Z,99.90
2018-12-05T22:26:51.206Z,99.90
2018-12-05T22:29:20.443Z,99.90
2018-12-05T22:31:49.615Z,99.90
2018-12-05T22:34:18.806Z,99.90
2018-12-05T22:36:49.171Z,99.90
2018-12-05T22:39:18.383Z,99.90
2018-12-05T22:41:47.538Z,99.90
2018-12-05T22:44:23.119Z,99.90
2018-12-05T22:46:58.945Z,99.90
2018-12-05T22:49:28.127Z,99.90
2018-12-05T22:51:57.283Z,99.90
2018-12-05T22:54:26.607Z,99.90
2018-12-05T22:57:20.263Z,99.90
2018-12-05T22:59:49.531Z,99.90
2018-12-05T23:02:19.370Z,99.90
2018-12-05T23:04:48.695Z,99.90
2018-12-05T23:07:18.043Z,99.90
2018-12-05T23:09:47.222Z,99.90
2018-12-05T23:12:16.446Z,99.90
2018-12-05T23:14:45.628Z,99.90
2018-12-05T23:17:14.883Z,99.90
2018-12-05T23:19:44.103Z,99.90
2018-12-05T23:22:13.323Z,99.90
2018-12-05T23:24:42.539Z,99.90
2018-12-05T23:27:11.804Z,99.90
2018-12-05T23:29:41.038Z,99.90
2018-12-05T23:32:10.331Z,99.90
2018-12-05T23:34:39.497Z,99.90
2018-12-05T23:37:08.682Z,99.90
2018-12-05T23:39:37.935Z,99.90
2018-12-05T23:42:07.303Z,99.90
2018-12-05T23:44:36.566Z,99.90
2018-12-05T23:47:05.931Z,99.90
2018-12-05T23:49:35.138Z,99.90
2018-12-05T23:52:04.355Z,99.90
2018-12-05T23:54:33.514Z,99.90
2018-12-05T23:57:02.701Z,99.90
2018-12-05T23:59:31.858Z,99.90
